Time;durP1;ratioP1;P1;durP2;ratioP2;P2;SDS_P1;SDS_P2;PMS_P1;PMS_P2;Temp;Humidity;BMP_temperature;BMP_pressure;BME280_temperature;BME280_humidity;BME280_pressure;Samples;Min_cycle;Max_cycle;Signal;HPM_P1;HPM_P2
2022/06/21 00:01:00;;;;;;;9.13;2.53;;;19.90;99.90;;;;;;5062215;28;20037;-78
2022/06/21 00:03:27;;;;;;;4.38;2.00;;;19.80;99.90;;;;;;5062216;28;20076;-78
2022/06/21 00:05:54;;;;;;;4.60;2.08;;;19.80;99.90;;;;;;5063064;28;20530;-78
2022/06/21 00:08:27;;;;;;;4.45;1.92;;;19.80;99.90;;;;;;5058459;28;20065;-78
2022/06/21 00:10:53;;;;;;;7.38;3.60;;;19.80;99.90;;;;;;5058494;28;20048;-78
2022/06/21 00:13:23;;;;;;;3.45;2.05;;;19.90;99.90;;;;;;5059914;28;20123;-78
2022/06/21 00:15:52;;;;;;;9.95;4.00;;;19.80;99.90;;;;;;5075554;28;20051;-77
2022/06/21 00:18:21;;;;;;;4.65;2.65;;;19.80;99.90;;;;;;5056508;28;20135;-77
2022/06/21 00:20:48;;;;;;;4.07;2.00;;;19.80;99.90;;;;;;5060068;28;20293;-78
2022/06/21 00:23:17;;;;;;;4.57;2.20;;;19.80;99.90;;;;;;5057410;28;20067;-77
2022/06/21 00:25:46;;;;;;;4.47;2.50;;;19.80;99.90;;;;;;5060913;28;20044;-78
2022/06/21 00:28:12;;;;;;;4.68;2.45;;;19.70;99.90;;;;;;5060190;28;20596;-77
2022/06/21 00:30:39;;;;;;;5.30;2.65;;;19.70;99.90;;;;;;5061374;28;20041;-77
2022/06/21 00:33:12;;;;;;;3.95;2.05;;;19.70;99.90;;;;;;5059818;28;20041;-77
2022/06/21 00:35:42;;;;;;;6.20;2.75;;;19.70;99.90;;;;;;5060437;28;20130;-78
2022/06/21 00:38:15;;;;;;;5.90;2.65;;;19.70;99.90;;;;;;5060275;28;20525;-77
2022/06/21 00:40:42;;;;;;;4.18;2.55;;;19.70;99.90;;;;;;5059918;28;20617;-77
2022/06/21 00:43:22;;;;;;;4.40;2.20;;;19.80;99.90;;;;;;5057498;28;20064;-78
2022/06/21 00:45:50;;;;;;;3.13;2.00;;;19.80;99.90;;;;;;5059471;28;20573;-77
2022/06/21 00:48:37;;;;;;;4.25;1.98;;;19.90;99.90;;;;;;5058900;28;20064;-77
2022/06/21 00:51:13;;;;;;;4.78;1.92;;;19.90;99.90;;;;;;5060604;28;20044;-77
2022/06/21 00:53:48;;;;;;;8.57;2.20;;;19.90;99.90;;;;;;5074680;28;20069;-77
2022/06/21 00:56:26;;;;;;;3.05;2.78;;;19.90;99.90;;;;;;5075111;28;20040;-77
2022/06/21 00:58:52;;;;;;;4.90;2.35;;;19.90;99.90;;;;;;5056161;28;20036;-77
2022/06/21 01:01:23;;;;;;;4.82;2.17;;;19.90;99.90;;;;;;5059192;28;20037;-76
2022/06/21 01:04:01;;;;;;;6.05;2.00;;;19.90;99.90;;;;;;5045540;28;20120;-77
2022/06/21 01:06:38;;;;;;;4.70;2.20;;;19.90;99.90;;;;;;5076465;28;20049;-77
2022/06/21 01:09:08;;;;;;;4.07;2.78;;;19.90;99.90;;;;;;5059280;28;20573;-78
2022/06/21 01:11:41;;;;;;;4.07;2.03;;;20.00;99.90;;;;;;5058694;28;20161;-78
2022/06/21 01:14:08;;;;;;;5.32;2.17;;;20.00;99.90;;;;;;5058509;28;20092;-79
2022/06/21 01:16:36;;;;;;;5.50;2.22;;;20.00;99.90;;;;;;5056591;28;20044;-78
2022/06/21 01:19:06;;;;;;;3.97;2.35;;;20.00;99.90;;;;;;5072482;28;20439;-78
2022/06/21 01:21:34;;;;;;;4.47;2.08;;;20.00;99.90;;;;;;5073065;28;20048;-78
2022/06/21 01:24:10;;;;;;;4.43;2.92;;;20.00;99.90;;;;;;5059287;28;20051;-78
2022/06/21 01:26:42;;;;;;;4.47;2.15;;;20.00;99.90;;;;;;5059941;28;20037;-78
2022/06/21 01:29:16;;;;;;;4.63;2.10;;;20.00;99.90;;;;;;5061038;28;20113;-77
2022/06/21 01:31:43;;;;;;;3.17;1.83;;;19.90;99.90;;;;;;5057468;28;20740;-77
2022/06/21 01:34:17;;;;;;;3.72;2.15;;;19.90;99.90;;;;;;5061570;28;20520;-77
2022/06/21 01:36:45;;;;;;;4.90;2.55;;;19.90;99.90;;;;;;5058088;28;20103;-78
2022/06/21 01:39:19;;;;;;;5.93;2.53;;;19.90;99.90;;;;;;5057835;28;21395;-78
2022/06/21 01:42:00;;;;;;;4.78;2.15;;;19.90;99.90;;;;;;5060089;28;20434;-77
2022/06/21 01:44:32;;;;;;;4.47;3.42;;;19.90;99.90;;;;;;5059739;28;20065;-78
2022/06/21 01:47:02;;;;;;;3.60;2.20;;;19.90;99.90;;;;;;5058450;28;20041;-79
2022/06/21 01:49:31;;;;;;;3.47;2.35;;;19.90;99.90;;;;;;5059868;28;20045;-78
2022/06/21 01:52:04;;;;;;;2.80;2.00;;;19.90;99.90;;;;;;5059415;28;20115;-78
2022/06/21 01:54:36;;;;;;;3.33;2.03;;;19.80;99.90;;;;;;5062178;28;20044;-77
2022/06/21 01:57:02;;;;;;;4.15;2.55;;;19.80;99.90;;;;;;5057606;28;20728;-78
2022/06/21 01:59:34;;;;;;;7.13;2.33;;;19.80;99.90;;;;;;5059551;28;20445;-77
2022/06/21 02:02:23;;;;;;;5.90;2.78;;;19.80;99.90;;;;;;5057449;28;20040;-78
2022/06/21 02:05:21;;;;;;;3.60;2.42;;;19.80;99.90;;;;;;5055860;28;20076;-78
2022/06/21 02:07:59;;;;;;;4.65;2.15;;;19.80;99.90;;;;;;5058327;28;20112;-77
2022/06/21 02:10:31;;;;;;;4.85;2.67;;;19.70;99.90;;;;;;5057835;28;20556;-79
2022/06/21 02:13:16;;;;;;;4.00;2.40;;;19.60;99.90;;;;;;5059403;28;20044;-76
2022/06/21 02:15:50;;;;;;;3.35;2.25;;;19.50;99.90;;;;;;5058926;28;20044;-80
2022/06/21 02:18:18;;;;;;;3.78;2.42;;;19.50;99.90;;;;;;5057704;28;20053;-78
2022/06/21 02:21:01;;;;;;;4.78;2.63;;;19.40;99.90;;;;;;5055856;28;20132;-78
2022/06/21 02:23:28;;;;;;;5.65;2.83;;;19.40;99.90;;;;;;5062150;28;20168;-78
2022/06/21 02:25:56;;;;;;;7.90;2.80;;;19.40;99.90;;;;;;5073559;28;20147;-78
2022/06/21 02:28:23;;;;;;;7.47;3.28;;;19.30;99.90;;;;;;5057426;28;20032;-79
2022/06/21 02:30:52;;;;;;;8.60;2.72;;;19.30;99.90;;;;;;5056991;28;20033;-78
2022/06/21 02:33:23;;;;;;;7.22;3.10;;;19.30;99.90;;;;;;5062594;28;20045;-78
2022/06/21 02:35:58;;;;;;;5.72;3.33;;;19.20;99.90;;;;;;5063841;28;20849;-76
2022/06/21 02:38:32;;;;;;;3.85;2.63;;;19.30;99.90;;;;;;5060879;28;20055;-79
2022/06/21 02:41:32;;;;;;;6.07;3.20;;;19.20;99.90;;;;;;5077739;28;20086;-77
2022/06/21 02:44:10;;;;;;;5.47;3.35;;;19.20;99.90;;;;;;5059606;28;20936;-77
2022/06/21 02:46:41;;;;;;;9.00;3.65;;;19.20;99.90;;;;;;5063925;28;20165;-77
2022/06/21 02:49:10;;;;;;;4.60;2.75;;;19.20;99.90;;;;;;5061795;28;20047;-77
2022/06/21 02:51:43;;;;;;;7.82;3.30;;;19.20;99.90;;;;;;5063978;28;20036;-77
2022/06/21 02:54:48;;;;;;;6.97;3.53;;;19.20;99.90;;;;;;5080121;28;20518;-77
2022/06/21 02:57:25;;;;;;;4.95;3.10;;;19.20;99.90;;;;;;4975626;28;20712;-77
2022/06/21 02:59:52;;;;;;;6.78;3.17;;;19.10;99.90;;;;;;5050482;28;20490;-77
2022/06/21 03:02:22;;;;;;;6.38;3.25;;;19.20;99.90;;;;;;5059629;28;20037;-77
2022/06/21 03:05:13;;;;;;;4.93;3.85;;;19.20;99.90;;;;;;5061877;28;20094;-77
2022/06/21 03:07:43;;;;;;;7.38;3.42;;;19.20;99.90;;;;;;5059656;28;20587;-77
2022/06/21 03:10:18;;;;;;;7.53;3.90;;;19.20;99.90;;;;;;5062157;28;20536;-80
2022/06/21 03:12:44;;;;;;;5.25;2.90;;;19.20;99.90;;;;;;5061578;28;20123;-77
2022/06/21 03:15:12;;;;;;;4.57;2.97;;;19.20;99.90;;;;;;5058807;28;20462;-77
2022/06/21 03:17:43;;;;;;;5.60;3.30;;;19.20;99.90;;;;;;5058440;28;20528;-77
2022/06/21 03:20:14;;;;;;;5.00;3.13;;;19.10;99.90;;;;;;5061508;28;20509;-77
2022/06/21 03:22:41;;;;;;;6.93;3.78;;;19.20;99.90;;;;;;5078622;28;20526;-77
2022/06/21 03:25:17;;;;;;;5.63;3.80;;;19.10;99.90;;;;;;5057713;28;20091;-77
2022/06/21 03:27:58;;;;;;;4.88;2.90;;;19.10;99.90;;;;;;5045794;28;20044;-78
2022/06/21 03:30:35;;;;;;;4.65;3.05;;;18.90;99.90;;;;;;5076968;28;20124;-77
2022/06/21 03:33:03;;;;;;;5.43;3.42;;;18.90;99.90;;;;;;5062576;28;20143;-77
2022/06/21 03:35:33;;;;;;;5.30;3.10;;;18.80;99.90;;;;;;5063279;28;20113;-77
2022/06/21 03:37:59;;;;;;;9.02;3.75;;;18.70;99.90;;;;;;5060809;28;20439;-77
2022/06/21 03:43:22;;;;;;;4.85;3.03;;;18.70;99.90;;;;;;5060830;28;20063;-78
2022/06/21 03:45:50;;;;;;;5.20;3.03;;;18.70;99.90;;;;;;5075996;28;20132;-78
2022/06/21 03:48:21;;;;;;;5.97;3.13;;;18.70;99.90;;;;;;5060543;28;20044;-78
2022/06/21 03:51:13;;;;;;;6.50;3.35;;;19.00;99.90;;;;;;5060417;28;20171;-77
2022/06/21 03:53:45;;;;;;;3.88;2.72;;;18.60;99.90;;;;;;5047483;28;20146;-77
2022/06/21 03:56:53;;;;;;;8.13;3.67;;;18.60;99.90;;;;;;5060453;28;20029;-77
2022/06/21 03:59:28;;;;;;;5.43;3.35;;;18.60;99.90;;;;;;5019569;28;20476;-76
2022/06/21 04:01:58;;;;;;;4.53;3.03;;;18.70;99.90;;;;;;5056022;28;20128;-76
2022/06/21 04:04:35;;;;;;;5.13;3.33;;;18.70;99.90;;;;;;5061913;28;20128;-77
2022/06/21 04:07:19;;;;;;;4.95;3.35;;;18.60;99.90;;;;;;5060773;28;20480;-77
2022/06/21 04:09:52;;;;;;;5.53;3.25;;;18.50;99.90;;;;;;5059721;28;20561;-78
2022/06/21 04:12:35;;;;;;;6.63;3.55;;;18.50;99.90;;;;;;5062418;28;20045;-76
2022/06/21 04:15:56;;;;;;;5.20;3.25;;;18.60;99.90;;;;;;5058428;28;20043;-77
2022/06/21 04:18:39;;;;;;;6.05;3.35;;;18.50;99.90;;;;;;5035665;28;20091;-79
2022/06/21 04:21:07;;;;;;;9.82;3.45;;;18.30;99.90;;;;;;5058034;28;20045;-77
2022/06/21 04:23:59;;;;;;;4.13;3.10;;;18.30;99.90;;;;;;5060910;28;20049;-76
2022/06/21 04:26:36;;;;;;;5.53;3.08;;;18.30;99.90;;;;;;5060423;28;20033;-76
2022/06/21 04:29:10;;;;;;;6.05;3.08;;;18.30;99.90;;;;;;5060860;28;20134;-77
2022/06/21 04:31:51;;;;;;;8.23;5.10;;;18.30;99.90;;;;;;5059038;28;20076;-76
2022/06/21 04:34:35;;;;;;;9.00;4.15;;;18.30;99.90;;;;;;5060580;28;20509;-76
2022/06/21 04:37:24;;;;;;;4.40;3.53;;;18.30;99.90;;;;;;5061397;28;20037;-77
2022/06/21 04:40:04;;;;;;;5.93;3.58;;;18.30;99.90;;;;;;5060388;28;21073;-76
2022/06/21 04:42:45;;;;;;;8.70;4.38;;;18.30;99.90;;;;;;5053167;28;20100;-76
2022/06/21 04:45:29;;;;;;;7.28;4.82;;;18.30;99.90;;;;;;5059040;28;20099;-77
2022/06/21 04:48:09;;;;;;;6.43;3.50;;;18.30;99.90;;;;;;5060557;28;20040;-77
2022/06/21 04:50:43;;;;;;;4.65;3.42;;;18.30;99.90;;;;;;5060585;28;20052;-77
2022/06/21 04:53:25;;;;;;;8.70;3.67;;;18.20;99.90;;;;;;5073144;28;20060;-78
2022/06/21 04:55:51;;;;;;;;;;;18.30;99.90;;;;;;5060105;28;20048;-77
2022/06/21 04:58:17;;;;;;;7.38;3.53;;;18.30;99.90;;;;;;5059419;28;20043;-77
2022/06/21 05:00:42;;;;;;;5.78;3.83;;;18.30;99.90;;;;;;5055043;28;20055;-78
2022/06/21 05:03:23;;;;;;;5.22;3.97;;;18.40;99.90;;;;;;5060948;28;20044;-78
2022/06/21 05:05:49;;;;;;;8.73;4.75;;;18.30;99.90;;;;;;5057347;28;20544;-80
2022/06/21 05:08:19;;;;;;;8.88;5.13;;;18.30;99.90;;;;;;5059922;28;20881;-87
2022/06/21 05:10:48;;;;;;;8.50;4.22;;;18.30;99.90;;;;;;5058011;28;20040;-77
2022/06/21 05:13:26;;;;;;;5.03;4.00;;;18.30;99.90;;;;;;5059300;28;20041;-77
2022/06/21 05:15:53;;;;;;;6.63;4.13;;;18.40;99.90;;;;;;5059590;28;20072;-79
2022/06/21 05:18:33;;;;;;;7.35;4.35;;;18.50;99.90;;;;;;5059639;28;20126;-78
2022/06/21 05:21:05;;;;;;;6.47;4.10;;;18.50;99.90;;;;;;5055071;28;20458;-76
2022/06/21 05:23:32;;;;;;;5.00;3.33;;;18.40;99.90;;;;;;5058691;28;20083;-77
2022/06/21 05:26:02;;;;;;;12.23;4.80;;;18.40;99.90;;;;;;5061518;28;20051;-76
2022/06/21 05:28:39;;;;;;;7.20;3.72;;;18.40;99.90;;;;;;5061477;28;20434;-76
2022/06/21 05:31:25;;;;;;;5.78;3.10;;;18.40;99.90;;;;;;5062369;28;20537;-76
2022/06/21 05:33:57;;;;;;;5.20;3.17;;;18.50;99.90;;;;;;5060571;28;20056;-77
2022/06/21 05:36:41;;;;;;;9.23;3.92;;;18.40;99.90;;;;;;5063852;28;20041;-77
2022/06/21 05:39:20;;;;;;;9.55;3.95;;;18.40;99.90;;;;;;5059898;28;20048;-77
2022/06/21 05:41:52;;;;;;;8.55;4.22;;;18.40;99.90;;;;;;5058858;28;20044;-76
2022/06/21 05:44:30;;;;;;;8.10;3.42;;;18.50;99.90;;;;;;5061860;28;20052;-77
2022/06/21 05:47:14;;;;;;;7.03;3.85;;;18.60;99.90;;;;;;5063441;28;20052;-77
2022/06/21 05:49:41;;;;;;;5.60;3.50;;;18.70;99.90;;;;;;5061942;28;20885;-76
2022/06/21 05:52:12;;;;;;;5.95;3.38;;;18.60;99.90;;;;;;5062417;28;20061;-76
2022/06/21 05:54:44;;;;;;;7.87;3.30;;;18.60;99.90;;;;;;5063020;28;20052;-77
2022/06/21 05:57:16;;;;;;;9.32;4.32;;;18.70;99.90;;;;;;5063469;28;20386;-76
2022/06/21 05:59:42;;;;;;;8.35;3.97;;;18.70;99.90;;;;;;5059194;28;20044;-77
2022/06/21 06:02:14;;;;;;;8.40;3.60;;;18.80;99.90;;;;;;5061038;28;20065;-77
2022/06/21 06:04:49;;;;;;;6.88;4.22;;;18.80;99.90;;;;;;5060392;28;20131;-76
2022/06/21 06:07:29;;;;;;;6.35;3.75;;;18.80;99.90;;;;;;5061769;28;20045;-75
2022/06/21 06:09:59;;;;;;;7.32;3.60;;;18.80;99.90;;;;;;5060909;28;20048;-76
2022/06/21 06:12:32;;;;;;;5.65;4.03;;;18.80;99.90;;;;;;5077165;28;20525;-76
2022/06/21 06:15:02;;;;;;;9.43;3.38;;;18.70;99.90;;;;;;5064133;28;20615;-76
2022/06/21 06:18:06;;;;;;;5.07;3.60;;;18.80;99.90;;;;;;5080865;28;20036;-76
2022/06/21 06:20:44;;;;;;;9.60;3.35;;;18.90;99.90;;;;;;4980913;28;20039;-74
2022/06/21 06:23:24;;;;;;;8.30;4.07;;;18.90;99.90;;;;;;5051487;28;20131;-76
2022/06/21 06:26:13;;;;;;;7.78;3.92;;;19.00;99.90;;;;;;5062801;28;20530;-76
2022/06/21 06:28:49;;;;;;;7.40;4.88;;;19.10;99.90;;;;;;5078970;27;20099;-76
2022/06/21 06:31:25;;;;;;;7.53;3.60;;;19.20;99.90;;;;;;5064220;28;20036;-76
2022/06/21 06:33:56;;;;;;;7.30;4.35;;;19.40;99.90;;;;;;5063569;28;20548;-76
2022/06/21 06:36:34;;;;;;;7.23;3.40;;;19.50;99.90;;;;;;5064599;28;20049;-76
2022/06/21 06:39:02;;;;;;;8.38;3.35;;;19.50;99.90;;;;;;5063753;28;20099;-76
2022/06/21 06:41:33;;;;;;;6.28;3.30;;;19.60;99.90;;;;;;5066458;28;20580;-76
2022/06/21 06:44:06;;;;;;;6.45;3.33;;;19.50;99.90;;;;;;5062256;28;20048;-76
2022/06/21 06:46:37;;;;;;;7.35;3.15;;;19.50;99.90;;;;;;5062975;28;20048;-76
2022/06/21 06:49:38;;;;;;;8.05;3.80;;;19.50;99.90;;;;;;5059076;28;20048;-77
2022/06/21 06:52:24;;;;;;;7.80;3.42;;;19.50;99.90;;;;;;5022551;28;20033;-76
2022/06/21 06:55:11;;;;;;;11.43;4.00;;;19.60;99.90;;;;;;5060819;28;20063;-76
2022/06/21 06:57:58;;;;;;;7.68;4.00;;;19.60;99.90;;;;;;5064189;28;20068;-76
2022/06/21 07:00:30;;;;;;;6.00;3.58;;;19.60;99.90;;;;;;5065366;28;20069;-76
2022/06/21 07:03:00;;;;;;;7.70;4.43;;;19.60;99.90;;;;;;5065657;28;20041;-77
2022/06/21 07:05:45;;;;;;;7.75;3.92;;;19.70;99.90;;;;;;5066552;28;20056;-76
2022/06/21 07:08:40;;;;;;;8.38;4.35;;;19.70;99.90;;;;;;5066853;28;20557;-76
2022/06/21 07:11:37;;;;;;;8.52;4.25;;;19.70;99.90;;;;;;5065555;28;20094;-76
2022/06/21 07:14:03;;;;;;;10.75;5.05;;;19.80;99.90;;;;;;5063106;28;20222;-76
2022/06/21 07:16:34;;;;;;;11.93;4.88;;;19.80;99.90;;;;;;5065407;28;20072;-76
2022/06/21 07:19:01;;;;;;;8.73;5.43;;;19.80;99.90;;;;;;5064415;28;20118;-76
2022/06/21 07:21:27;;;;;;;8.25;4.22;;;19.90;99.90;;;;;;5067437;28;20032;-76
2022/06/21 07:23:57;;;;;;;9.30;4.45;;;19.90;99.90;;;;;;5062887;28;20584;-76
2022/06/21 07:26:41;;;;;;;8.10;4.45;;;20.00;99.90;;;;;;5082141;28;20866;-76
2022/06/21 07:29:22;;;;;;;7.40;4.07;;;20.20;99.90;;;;;;5063065;28;20108;-76
2022/06/21 07:31:53;;;;;;;5.63;4.07;;;20.40;99.90;;;;;;5070955;28;20113;-76
2022/06/21 07:34:35;;;;;;;8.60;3.90;;;20.40;99.90;;;;;;5062831;28;20049;-76
2022/06/21 07:37:15;;;;;;;8.60;4.28;;;20.50;99.90;;;;;;5081849;27;20831;-76
2022/06/21 07:40:19;;;;;;;11.02;3.83;;;20.60;99.90;;;;;;5065817;28;20047;-76
2022/06/21 07:42:58;;;;;;;8.45;4.30;;;20.80;99.90;;;;;;5063264;28;20057;-75
2022/06/21 07:45:29;;;;;;;7.93;3.95;;;20.90;99.90;;;;;;5065821;28;20434;-76
2022/06/21 07:48:06;;;;;;;7.25;4.15;;;20.90;99.90;;;;;;5063780;28;20080;-77
2022/06/21 07:50:52;;;;;;;7.80;4.85;;;20.90;99.90;;;;;;5066244;28;20074;-76
2022/06/21 07:53:24;;;;;;;6.57;4.38;;;21.00;99.90;;;;;;5065575;28;20049;-76
2022/06/21 07:56:16;;;;;;;9.65;5.50;;;21.00;99.90;;;;;;5079195;28;20037;-76
2022/06/21 07:58:50;;;;;;;8.50;5.03;;;21.00;99.90;;;;;;5065725;28;20032;-76
2022/06/21 08:07:27;;;;;;;18.92;5.60;;;21.00;99.90;;;;;;5066510;28;20128;-76
2022/06/21 08:09:59;;;;;;;6.72;4.65;;;20.90;99.90;;;;;;5064925;28;20041;-76
2022/06/21 08:12:25;;;;;;;8.88;5.22;;;20.90;99.90;;;;;;5081909;28;20128;-76
2022/06/21 08:14:52;;;;;;;11.20;5.60;;;20.90;99.90;;;;;;5061773;28;20139;-76
2022/06/21 08:17:36;;;;;;;11.05;5.97;;;20.90;99.90;;;;;;5063328;28;20037;-76
2022/06/21 08:20:13;;;;;;;8.77;4.95;;;20.90;99.90;;;;;;5064790;28;20049;-76
2022/06/21 08:22:41;;;;;;;9.00;4.85;;;20.90;99.90;;;;;;5064706;28;20075;-76
2022/06/21 08:25:13;;;;;;;9.00;5.78;;;20.90;99.90;;;;;;5063391;28;20123;-76
2022/06/21 08:28:01;;;;;;;9.35;6.00;;;20.90;99.90;;;;;;5065242;28;20119;-76
2022/06/21 08:30:36;;;;;;;7.10;5.25;;;20.90;99.90;;;;;;5047349;28;20037;-77
2022/06/21 08:33:27;;;;;;;9.80;5.60;;;21.00;99.90;;;;;;5063230;28;20045;-76
2022/06/21 08:36:10;;;;;;;8.52;5.20;;;21.00;99.90;;;;;;5034239;28;20056;-76
2022/06/21 08:38:49;;;;;;;8.75;5.05;;;21.00;99.90;;;;;;5064319;28;20045;-76
2022/06/21 08:44:30;;;;;;;9.88;5.22;;;21.00;99.90;;;;;;5064945;28;20061;-76
2022/06/21 08:47:21;;;;;;;8.45;4.95;;;21.10;99.90;;;;;;5065688;28;20040;-76
2022/06/21 08:50:02;;;;;;;7.13;5.47;;;21.10;99.90;;;;;;5065621;28;20127;-76
2022/06/21 08:52:52;;;;;;;9.70;5.43;;;21.20;99.90;;;;;;5063871;28;20044;-76
2022/06/21 08:55:43;;;;;;;7.35;5.05;;;21.30;99.90;;;;;;5065559;28;20045;-76
2022/06/21 08:58:24;;;;;;;7.55;5.70;;;21.40;99.90;;;;;;5081102;28;20041;-76
2022/06/21 09:00:57;;;;;;;16.90;6.45;;;21.50;99.90;;;;;;5064322;28;20615;-77
2022/06/21 09:03:43;;;;;;;10.15;5.38;;;21.50;99.90;;;;;;5064163;28;20053;-77
2022/06/21 09:06:17;;;;;;;8.55;4.97;;;21.50;99.90;;;;;;5056956;28;20057;-77
2022/06/21 09:08:43;;;;;;;6.90;5.32;;;21.60;99.90;;;;;;5063967;28;20527;-77
2022/06/21 09:11:28;;;;;;;8.80;4.70;;;21.80;99.90;;;;;;5062281;28;20041;-76
2022/06/21 09:14:20;;;;;;;9.52;5.55;;;22.00;99.90;;;;;;5064902;28;20040;-77
2022/06/21 09:17:03;;;;;;;9.60;4.43;;;22.10;99.90;;;;;;5064118;28;20045;-77
2022/06/21 09:19:50;;;;;;;7.25;4.72;;;22.10;99.90;;;;;;5063524;28;20120;-78
2022/06/21 09:22:31;;;;;;;8.63;5.30;;;22.10;99.90;;;;;;5079213;28;20350;-77
2022/06/21 09:25:07;;;;;;;11.70;5.43;;;22.20;99.90;;;;;;5064825;28;20041;-77
2022/06/21 09:27:45;;;;;;;7.35;4.75;;;22.30;99.90;;;;;;5065014;28;20044;-77
2022/06/21 09:30:26;;;;;;;7.15;5.20;;;22.50;99.90;;;;;;5064134;28;20040;-77
2022/06/21 09:33:05;;;;;;;10.57;6.07;;;22.50;99.90;;;;;;5062350;28;20068;-77
2022/06/21 09:35:59;;;;;;;8.02;4.82;;;22.60;99.90;;;;;;5063562;28;20044;-77
2022/06/21 09:38:37;;;;;;;6.88;4.93;;;22.60;99.90;;;;;;5065087;28;20040;-77
2022/06/21 09:41:15;;;;;;;9.35;5.00;;;22.60;99.90;;;;;;5061078;28;20045;-78
2022/06/21 09:43:49;;;;;;;6.88;4.85;;;22.80;99.90;;;;;;5064252;28;20056;-78
2022/06/21 09:46:21;;;;;;;8.60;4.63;;;22.80;99.90;;;;;;5063198;28;20049;-76
2022/06/21 09:49:18;;;;;;;6.88;4.57;;;22.80;99.90;;;;;;5063973;28;20052;-77
2022/06/21 09:52:11;;;;;;;6.07;4.07;;;22.80;99.90;;;;;;5064039;28;20157;-76
2022/06/21 09:54:40;;;;;;;8.20;4.80;;;22.70;99.90;;;;;;5062888;28;20159;-77
2022/06/21 09:57:16;;;;;;;7.10;5.28;;;22.60;99.90;;;;;;5062344;28;20041;-77
2022/06/21 09:59:54;;;;;;;6.85;4.95;;;22.50;99.90;;;;;;5062410;28;20052;-77
2022/06/21 10:02:35;;;;;;;7.22;5.05;;;22.40;99.90;;;;;;5064300;28;20052;-76
2022/06/21 10:05:28;;;;;;;7.30;5.57;;;22.20;99.90;;;;;;5061381;28;20501;-77
2022/06/21 10:08:14;;;;;;;8.38;5.28;;;22.20;99.90;;;;;;5063776;28;20044;-76
2022/06/21 10:11:12;;;;;;;8.38;4.97;;;22.00;99.90;;;;;;5063162;28;20096;-77
2022/06/21 10:13:57;;;;;;;8.18;4.78;;;21.70;99.90;;;;;;5048824;28;20052;-77
2022/06/21 10:16:48;;;;;;;6.68;5.38;;;21.60;99.90;;;;;;5080935;28;20068;-76
2022/06/21 10:19:17;;;;;;;9.70;5.35;;;21.40;99.90;;;;;;5080406;28;20514;-76
2022/06/21 10:22:05;;;;;;;7.82;5.45;;;21.30;99.90;;;;;;5061709;28;20052;-76
2022/06/21 10:24:48;;;;;;;6.47;5.07;;;21.20;99.90;;;;;;5064452;28;20094;-77
2022/06/21 10:27:32;;;;;;;8.20;5.07;;;21.20;99.90;;;;;;5079106;28;20412;-76
2022/06/21 10:30:24;;;;;;;7.30;5.30;;;21.10;99.90;;;;;;5063803;28;20088;-76
2022/06/21 10:33:28;;;;;;;9.63;6.03;;;21.10;99.90;;;;;;5064120;28;20067;-77
2022/06/21 10:35:56;;;;;;;6.18;4.68;;;21.10;99.90;;;;;;5062847;28;21044;-77
2022/06/21 10:38:32;;;;;;;7.63;4.53;;;21.10;99.90;;;;;;5063342;28;20039;-76
2022/06/21 10:41:10;;;;;;;6.70;4.85;;;21.10;99.90;;;;;;5061282;28;20051;-77
2022/06/21 10:43:43;;;;;;;6.07;4.53;;;21.20;99.90;;;;;;5063016;28;20057;-77
2022/06/21 10:46:26;;;;;;;6.75;4.78;;;21.20;99.90;;;;;;5063139;28;20083;-77
2022/06/21 10:49:25;;;;;;;7.13;4.57;;;21.20;99.90;;;;;;5063212;28;20040;-77
2022/06/21 10:52:16;;;;;;;6.05;4.88;;;21.20;99.90;;;;;;5063236;28;20041;-77
2022/06/21 10:54:55;;;;;;;5.15;4.15;;;21.20;99.90;;;;;;5065254;28;20787;-77
2022/06/21 10:57:58;;;;;;;8.68;4.05;;;21.30;99.90;;;;;;5067843;28;20059;-77
2022/06/21 11:03:26;;;;;;;7.63;5.07;;;21.40;99.90;;;;;;5066259;28;20057;-77
2022/06/21 11:06:26;;;;;;;5.43;4.07;;;21.50;99.90;;;;;;5065637;28;20103;-77
2022/06/21 11:09:01;;;;;;;4.20;3.08;;;21.50;99.90;;;;;;5055095;28;20049;-77
2022/06/21 11:11:36;;;;;;;5.53;3.65;;;21.50;99.90;;;;;;5081985;28;20200;-77
2022/06/21 11:14:23;;;;;;;4.97;3.30;;;21.50;99.90;;;;;;5066935;28;20064;-77
2022/06/21 11:16:58;;;;;;;5.82;3.88;;;21.50;99.90;;;;;;5065120;28;21122;-77
2022/06/21 11:19:39;;;;;;;4.25;3.05;;;21.60;99.90;;;;;;5066477;28;20047;-77
2022/06/21 11:22:38;;;;;;;7.23;2.90;;;21.60;99.90;;;;;;5062902;28;20110;-77
2022/06/21 11:25:15;;;;;;;4.70;3.00;;;21.70;99.90;;;;;;5064527;28;20051;-77
2022/06/21 11:28:16;;;;;;;4.15;2.83;;;21.70;99.90;;;;;;5066234;28;20036;-77
2022/06/21 11:30:50;;;;;;;5.15;2.90;;;21.70;99.90;;;;;;5060108;28;20141;-78
2022/06/21 11:33:55;;;;;;;8.82;4.00;;;21.70;99.90;;;;;;5066773;28;20120;-78
2022/06/21 11:37:03;;;;;;;8.82;4.13;;;21.80;99.90;;;;;;5065050;28;20056;-77
2022/06/21 11:39:35;;;;;;;10.15;3.45;;;21.80;99.90;;;;;;5064144;28;20045;-77
2022/06/21 11:42:12;;;;;;;6.55;3.25;;;21.90;99.90;;;;;;5065016;28;20044;-77
2022/06/21 11:45:21;;;;;;;3.25;2.53;;;22.00;99.90;;;;;;5064707;28;20567;-77
2022/06/21 11:48:12;;;;;;;4.10;2.47;;;22.10;99.90;;;;;;5065498;28;20641;-78
2022/06/21 11:51:11;;;;;;;4.60;3.03;;;22.10;99.90;;;;;;5066320;28;20349;-78
2022/06/21 11:54:16;;;;;;;4.95;3.03;;;22.20;99.90;;;;;;5065911;28;20033;-78
2022/06/21 11:56:53;;;;;;;8.02;2.83;;;22.30;99.90;;;;;;5065935;28;20056;-76
2022/06/21 11:59:38;;;;;;;5.28;2.60;;;22.40;99.90;;;;;;5065572;28;20037;-77
2022/06/21 12:02:27;;;;;;;5.90;2.60;;;22.40;99.90;;;;;;5066130;28;20273;-77
2022/06/21 12:05:20;;;;;;;3.85;2.40;;;22.50;99.90;;;;;;5047458;28;20044;-77
2022/06/21 12:07:51;;;;;;;4.30;2.50;;;22.60;99.90;;;;;;5066443;28;20102;-77
2022/06/21 12:10:34;;;;;;;6.90;3.03;;;22.70;99.90;;;;;;5066946;28;20500;-77
2022/06/21 12:13:27;;;;;;;3.22;2.38;;;22.70;99.90;;;;;;5066713;28;20045;-77
2022/06/21 12:16:31;;;;;;;5.10;2.80;;;22.80;99.90;;;;;;5078150;28;20542;-77
2022/06/21 12:19:01;;;;;;;7.80;2.40;;;23.00;99.90;;;;;;5060882;28;20041;-78
2022/06/21 12:21:30;;;;;;;3.13;2.20;;;23.20;99.90;;;;;;5060885;28;20175;-78
2022/06/21 12:24:04;;;;;;;2.50;2.17;;;23.30;99.90;;;;;;5078500;28;20345;-78
2022/06/21 12:26:32;;;;;;;4.43;2.60;;;23.40;99.90;;;;;;5059674;28;20648;-77
2022/06/21 12:29:00;;;;;;;4.38;2.67;;;23.40;99.90;;;;;;5059335;28;20119;-78
2022/06/21 12:31:36;;;;;;;3.00;1.95;;;23.30;99.90;;;;;;5062185;28;20526;-81
2022/06/21 12:34:30;;;;;;;5.22;2.65;;;23.20;99.90;;;;;;5060508;28;21049;-76
2022/06/21 12:37:34;;;;;;;4.82;2.15;;;23.00;99.90;;;;;;5054471;28;20129;-76
2022/06/21 12:40:23;;;;;;;2.63;1.77;;;23.00;99.90;;;;;;5048610;28;20053;-76
2022/06/21 12:43:00;;;;;;;2.50;1.88;;;23.00;99.90;;;;;;5061064;28;20048;-76
2022/06/21 12:45:54;;;;;;;4.25;2.40;;;23.00;99.90;;;;;;5060694;28;20573;-76
2022/06/21 12:48:47;;;;;;;3.80;2.10;;;23.10;99.90;;;;;;5063362;28;20522;-76
2022/06/21 12:51:25;;;;;;;7.72;2.33;;;23.20;99.90;;;;;;5062165;28;20037;-76
2022/06/21 12:53:54;;;;;;;4.75;2.42;;;23.20;99.90;;;;;;5059319;28;20036;-77
2022/06/21 12:56:50;;;;;;;4.65;2.10;;;23.40;99.90;;;;;;5058650;28;20529;-76
2022/06/21 12:59:31;;;;;;;2.33;1.65;;;23.50;99.90;;;;;;5062350;28;20804;-77
2022/06/21 13:02:14;;;;;;;4.32;2.10;;;23.50;99.90;;;;;;5062600;28;20526;-76
2022/06/21 13:04:51;;;;;;;3.50;2.30;;;23.50;99.90;;;;;;5059585;28;20080;-76
2022/06/21 13:07:38;;;;;;;2.58;1.83;;;23.50;99.90;;;;;;5076427;28;20047;-76
2022/06/21 13:10:26;;;;;;;2.90;2.10;;;23.50;99.90;;;;;;5061347;28;20033;-76
2022/06/21 13:13:07;;;;;;;2.90;1.88;;;23.50;99.90;;;;;;5061637;28;20056;-76
2022/06/21 13:16:01;;;;;;;2.50;1.80;;;23.60;99.90;;;;;;5075574;28;20526;-77
2022/06/21 13:18:56;;;;;;;6.22;2.03;;;23.70;99.90;;;;;;5062485;28;20040;-77
2022/06/21 13:21:40;;;;;;;3.83;2.20;;;23.80;99.90;;;;;;5061210;28;20526;-76
2022/06/21 13:24:22;;;;;;;5.72;2.25;;;23.90;99.90;;;;;;5060586;28;20515;-77
2022/06/21 13:26:53;;;;;;;3.00;1.85;;;23.90;99.90;;;;;;5061435;28;20047;-76
2022/06/21 13:29:40;;;;;;;4.40;2.22;;;24.00;99.90;;;;;;5064112;28;20048;-76
2022/06/21 13:32:15;;;;;;;6.45;2.40;;;24.00;99.90;;;;;;5060036;28;21317;-76
2022/06/21 13:34:49;;;;;;;4.45;3.03;;;24.00;99.90;;;;;;5064091;28;20511;-76
2022/06/21 13:37:27;;;;;;;3.17;2.10;;;24.00;99.90;;;;;;5064418;28;20440;-76
2022/06/21 13:40:15;;;;;;;2.83;2.35;;;24.10;99.90;;;;;;5064313;28;20094;-76
2022/06/21 13:43:07;;;;;;;4.05;2.28;;;24.10;99.90;;;;;;5062541;28;20126;-76
2022/06/21 13:45:54;;;;;;;3.35;2.30;;;24.10;99.90;;;;;;5060333;28;20535;-76
2022/06/21 13:48:24;;;;;;;4.93;2.63;;;24.20;99.90;;;;;;5061544;28;20250;-76
2022/06/21 13:51:14;;;;;;;3.53;2.17;;;24.20;99.90;;;;;;5045446;28;20094;-76
2022/06/21 13:53:49;;;;;;;4.50;2.33;;;24.40;99.90;;;;;;5058511;28;20690;-77
2022/06/21 13:56:28;;;;;;;4.38;3.05;;;24.50;99.90;;;;;;5063462;28;20045;-76
2022/06/21 13:59:16;;;;;;;5.85;3.60;;;24.50;99.90;;;;;;5076505;27;20128;-77